Time;durP1;ratioP1;P1;durP2;ratioP2;P2;SDS_P1;SDS_P2;PMS_P1;PMS_P2;Temp;Humidity;BMP_temperature;BMP_pressure;BME280_temperature;BME280_humidity;BME280_pressure;Samples;Min_cycle;Max_cycle;Signal;HPM_P1;HPM_P2
2022/01/08 00:05:40;;;;;;;26.05;11.43;;;;;;;1.22;84.05;100076.77;740343;1158;114283;-77
2022/01/08 00:20:43;;;;;;;22.70;9.93;;;;;;;1.38;83.63;100087.95;740263;1158;114646;-76
2022/01/08 00:35:45;;;;;;;26.48;11.00;;;;;;;1.45;82.93;100075.53;741129;1157;114528;-76
2022/01/08 00:50:47;;;;;;;24.67;10.13;;;;;;;1.44;82.90;100077.30;739744;1155;113837;-77
2022/01/08 01:05:50;;;;;;;23.25;10.50;;;;;;;1.23;84.32;100073.25;739573;1155;114680;-77
2022/01/08 01:20:52;;;;;;;24.53;9.90;;;;;;;0.97;86.95;100068.52;739435;1162;114007;-77
2022/01/08 01:51:23;;;;;;;19.20;8.95;;;;;;;0.80;88.94;100040.97;740124;1162;115231;-76
2022/01/08 02:06:25;;;;;;;20.08;9.35;;;;;;;0.72;90.27;100031.97;740692;1155;114496;-76
2022/01/08 02:21:28;;;;;;;19.70;8.87;;;;;;;0.76;89.99;100017.98;739667;1155;114358;-76
2022/01/08 02:36:30;;;;;;;17.80;8.13;;;;;;;0.74;88.77;100001.72;739642;1157;114556;-77
2022/01/08 02:51:35;;;;;;;16.90;8.08;;;;;;;0.66;88.83;99986.66;739571;1158;113672;-77
2022/01/08 03:06:37;;;;;;;20.60;9.33;;;;;;;0.62;90.41;99985.97;739779;1162;114836;-76
2022/01/08 03:21:43;;;;;;;24.93;9.05;;;;;;;0.52;91.25;99969.27;740459;1155;114817;-75
2022/01/08 03:36:45;;;;;;;19.45;8.85;;;;;;;0.49;91.77;99959.94;739616;1158;114005;-76
2022/01/08 03:51:49;;;;;;;20.88;8.80;;;;;;;0.51;91.71;99957.27;739452;1155;113652;-76
2022/01/08 04:06:51;;;;;;;15.05;7.90;;;;;;;0.51;92.81;99943.55;739866;1157;113551;-76
2022/01/08 04:21:59;;;;;;;18.60;8.18;;;;;;;0.33;92.49;99938.42;740316;1162;113452;-77
2022/01/08 04:37:01;;;;;;;19.90;8.48;;;;;;;0.30;93.92;99934.25;740642;1162;113270;-76
2022/01/08 04:52:04;;;;;;;57.33;23.02;;;;;;;0.33;94.21;99917.78;741322;1155;113309;-76
2022/01/08 05:07:06;;;;;;;30.13;13.80;;;;;;;0.28;94.75;99910.26;739666;1157;113953;-76
2022/01/08 05:22:17;;;;;;;28.90;15.48;;;;;;;0.32;95.90;99901.44;739383;1158;113612;-75
2022/01/08 05:37:20;;;;;;;22.50;10.05;;;;;;;0.32;95.22;99904.02;739870;1162;115441;-76
2022/01/08 05:52:22;;;;;;;28.28;8.65;;;;;;;0.34;95.79;99896.20;740401;1157;113700;-76
2022/01/08 06:07:24;;;;;;;18.35;8.53;;;;;;;0.32;96.12;99895.45;739773;1157;115236;-76
2022/01/08 06:22:26;;;;;;;17.40;9.05;;;;;;;0.30;95.80;99908.45;739796;1162;113962;-75
2022/01/08 06:37:28;;;;;;;36.70;19.98;;;;;;;0.32;96.08;99906.60;740394;1162;113497;-76
2022/01/08 06:52:33;;;;;;;20.78;10.65;;;;;;;0.30;96.66;99916.19;739629;1162;114941;-75
2022/01/08 07:07:35;;;;;;;62.10;28.55;;;;;;;0.33;96.97;99923.76;740123;1158;114832;-76
2022/01/08 07:22:37;;;;;;;147.75;72.05;;;;;;;0.41;97.30;99925.95;740869;1162;113487;-75
2022/01/08 07:37:39;;;;;;;25.93;13.73;;;;;;;0.47;96.78;99930.77;740648;1155;114228;-77
2022/01/08 07:52:45;;;;;;;27.03;18.23;;;;;;;0.43;97.58;99918.13;740840;1162;113689;-77
2022/01/08 08:07:48;;;;;;;27.38;12.98;;;;;;;0.48;98.11;99906.64;740533;1155;113767;-73
2022/01/08 08:22:52;;;;;;;30.45;14.15;;;;;;;0.62;97.51;99884.42;742273;1162;113470;-85
2022/01/08 08:38:05;;;;;;;30.60;15.23;;;;;;;0.71;97.81;99876.19;744218;1157;115256;-83
2022/01/08 08:53:08;;;;;;;88.73;30.03;;;;;;;0.78;97.85;99916.28;742669;1162;114264;-82
2022/01/08 09:08:11;;;;;;;40.80;16.35;;;;;;;0.82;98.14;99904.86;740693;1162;113985;-82
2022/01/08 09:23:17;;;;;;;37.13;19.00;;;;;;;0.94;98.52;99877.54;742932;1157;113562;-87
2022/01/08 09:38:21;;;;;;;89.10;34.93;;;;;;;1.03;98.32;99871.05;743771;1162;113647;-85
2022/01/08 09:53:27;;;;;;;27.33;14.45;;;;;;;1.11;98.83;99874.03;742860;1155;113451;-87
2022/01/08 10:08:33;;;;;;;31.80;14.05;;;;;;;1.27;98.10;99871.42;743530;1162;115041;-88
2022/01/08 10:23:36;;;;;;;28.53;14.08;;;;;;;1.42;97.78;99866.31;742859;1157;113559;-87
2022/01/08 10:38:41;;;;;;;30.33;14.53;;;;;;;1.56;97.37;99862.92;743750;1157;113686;-88
2022/01/08 10:54:05;;;;;;;30.80;15.20;;;;;;;1.72;97.36;99863.72;744754;1162;113598;-87
2022/01/08 11:09:07;;;;;;;36.38;15.38;;;;;;;1.87;96.40;99843.88;741924;1156;114005;-87
2022/01/08 11:24:10;;;;;;;35.10;17.03;;;;;;;2.01;96.34;99832.73;741040;1155;114012;-85
2022/01/08 11:39:13;;;;;;;34.87;15.30;;;;;;;2.20;95.68;99826.45;740284;1162;113523;-85
2022/01/08 11:54:15;;;;;;;32.43;16.47;;;;;;;2.14;95.41;99809.55;740531;1157;114816;-84
2022/01/08 12:09:23;;;;;;;43.35;20.05;;;;;;;2.24;96.12;99791.69;744052;1162;113530;-87
2022/01/08 12:24:26;;;;;;;36.25;19.20;;;;;;;2.38;95.22;99786.49;743238;1157;114850;-86
2022/01/08 12:39:44;;;;;;;37.55;19.80;;;;;;;2.47;94.43;99785.92;744356;1162;114482;-86
2022/01/08 12:54:52;;;;;;;35.67;17.20;;;;;;;2.67;94.02;99763.13;742594;1162;113862;-86
2022/01/08 13:09:59;;;;;;;39.93;20.23;;;;;;;2.75;93.51;99768.64;742946;1155;113538;-84
2022/01/08 13:25:01;;;;;;;40.75;19.48;;;;;;;2.65;93.10;99775.33;741059;1155;113482;-79
2022/01/08 13:40:07;;;;;;;41.43;19.70;;;;;;;2.55;93.81;99763.88;740713;1162;114895;-79
2022/01/08 13:55:18;;;;;;;46.95;20.73;;;;;;;2.53;94.37;99770.93;740771;1162;115607;-81
2022/01/08 14:10:20;;;;;;;41.33;19.53;;;;;;;2.45;94.25;99772.22;740861;1162;115231;-81
2022/01/08 14:25:22;;;;;;;46.13;22.43;;;;;;;2.39;94.66;99780.39;740398;1155;113844;-81
2022/01/08 14:40:29;;;;;;;49.95;23.25;;;;;;;2.49;95.33;99785.82;740819;1155;113581;-84
2022/01/08 14:55:37;;;;;;;76.10;29.70;;;;;;;2.47;94.94;99770.39;740530;1162;113997;-82
2022/01/08 15:10:40;;;;;;;79.50;33.30;;;;;;;2.49;95.54;99775.46;741055;1162;113480;-80
2022/01/08 15:25:42;;;;;;;44.25;21.20;;;;;;;2.55;95.76;99784.59;741057;1162;114793;-81
2022/01/08 15:40:45;;;;;;;63.07;35.00;;;;;;;2.53;95.71;99792.47;740747;1157;114878;-81
2022/01/08 15:55:47;;;;;;;48.15;23.23;;;;;;;2.53;96.08;99781.30;740088;1157;113654;-76
2022/01/08 16:10:49;;;;;;;54.20;24.93;;;;;;;2.48;96.17;99785.00;740872;1156;114009;-82
2022/01/08 16:25:55;;;;;;;49.98;23.65;;;;;;;2.44;95.72;99774.91;739983;1155;113538;-81
2022/01/08 16:40:59;;;;;;;51.88;22.45;;;;;;;2.43;95.77;99757.71;741067;1155;114082;-81
2022/01/08 16:56:01;;;;;;;51.60;23.13;;;;;;;2.39;96.53;99743.30;740422;1162;113502;-81
2022/01/08 17:11:03;;;;;;;91.90;41.73;;;;;;;2.27;96.31;99721.59;745337;1158;113634;-82
2022/01/08 17:26:15;;;;;;;59.33;29.03;;;;;;;2.12;96.29;99710.45;741424;1159;113724;-83
2022/01/08 17:41:19;;;;;;;73.68;32.50;;;;;;;2.07;96.42;99702.99;740402;1155;113576;-82
2022/01/08 17:56:22;;;;;;;56.23;26.33;;;;;;;2.03;97.33;99698.08;741081;1154;113775;-81
2022/01/08 18:11:25;;;;;;;81.85;41.13;;;;;;;2.09;97.99;99690.77;741024;1162;114853;-80
2022/01/08 18:26:28;;;;;;;110.10;42.00;;;;;;;2.18;97.57;99689.38;740256;1158;113742;-80
2022/01/08 18:41:30;;;;;;;94.63;34.60;;;;;;;2.36;98.38;99671.84;740809;1155;114478;-82
2022/01/08 18:56:33;;;;;;;104.70;38.43;;;;;;;2.16;97.85;99670.52;740953;1154;114430;-82
2022/01/08 19:11:48;;;;;;;87.10;34.08;;;;;;;2.19;97.54;99666.91;741387;1158;114506;-80
2022/01/08 19:26:52;;;;;;;104.40;33.50;;;;;;;2.06;98.20;99651.31;740963;1157;114872;-82
2022/01/08 19:41:54;;;;;;;69.15;28.25;;;;;;;2.00;97.94;99637.83;741121;1155;113742;-80
2022/01/08 19:56:56;;;;;;;141.18;45.08;;;;;;;2.04;97.29;99628.13;740445;1154;113558;-80
2022/01/08 20:12:00;;;;;;;63.77;30.27;;;;;;;1.99;97.57;99633.60;740910;1155;114081;-73
2022/01/08 20:27:03;;;;;;;93.13;40.53;;;;;;;2.09;97.87;99615.73;740640;1156;113802;-75
2022/01/08 20:42:06;;;;;;;51.88;26.45;;;;;;;2.06;97.99;99613.34;740518;1155;113477;-75
2022/01/08 20:57:08;;;;;;;110.40;45.25;;;;;;;2.01;97.64;99581.75;740580;1154;113596;-73
2022/01/08 21:12:10;;;;;;;60.27;29.20;;;;;;;1.98;98.24;99571.61;741090;1155;114018;-72
2022/01/08 21:27:13;;;;;;;60.45;26.55;;;;;;;1.94;98.17;99559.77;740066;1162;113640;-76
2022/01/08 21:42:15;;;;;;;57.30;24.93;;;;;;;1.76;98.23;99541.91;740447;1155;113513;-75
2022/01/08 21:57:17;;;;;;;51.33;24.40;;;;;;;1.81;98.22;99551.98;740135;1155;113864;-73
2022/01/08 22:12:20;;;;;;;63.20;24.25;;;;;;;1.82;97.86;99544.13;740478;1155;113551;-73
2022/01/08 22:27:22;;;;;;;54.18;23.20;;;;;;;1.76;98.07;99522.99;739475;1162;114755;-73
2022/01/08 22:42:25;;;;;;;60.90;23.90;;;;;;;1.64;97.74;99511.67;740815;1162;113605;-76
2022/01/08 22:57:27;;;;;;;48.50;23.02;;;;;;;1.49;98.25;99496.20;740311;1162;113450;-78
2022/01/08 23:12:30;;;;;;;53.85;22.53;;;;;;;1.58;98.38;99475.85;740874;1155;113461;-73
2022/01/08 23:27:32;;;;;;;52.60;23.30;;;;;;;1.49;97.89;99479.84;740614;1158;114576;-72
2022/01/08 23:42:34;;;;;;;57.93;23.57;;;;;;;1.36;97.69;99474.63;741004;1157;113700;-74
2022/01/08 23:57:39;;;;;;;45.90;22.35;;;;;;;1.37;98.19;99463.34;740139;1158;115087;-73
